Social login voor leden:

1. METAR EBOS

METAR EBOS 172350Z 02007KT 9999 SCT015 05/03 Q1026 TEMPO BKN012

2. TAF EBOS

TAF EBOS 172350Z 02007KT 9999 SCT015 05/03 Q1026 TEMPO BKN012

3. NOTAMS EBOS

Klik hier voor een overzicht van de notams.

Deze pagina promoten

Noordzee Vliegclub - Nieuwpoortsesteenweg 947 8400 Oostende - Tel 059 30 04 79 - info@nzvc.be - 

 - Copyright 2020